createdAt,value
2019-01-24T00:00:41.510Z,100698.55
2019-01-24T00:03:09.227Z,100685.33
2019-01-24T00:05:37.056Z,100712.37
2019-01-24T00:08:04.831Z,100711.56
2019-01-24T00:10:32.563Z,100722.56
2019-01-24T00:13:00.331Z,100718.53
2019-01-24T00:15:45.490Z,100724.34
2019-01-24T00:18:13.299Z,100727.91
2019-01-24T00:20:41.068Z,100731.91
2019-01-24T00:23:08.800Z,100734.17
2019-01-24T00:25:36.530Z,100722.63
2019-01-24T00:28:04.284Z,100736.83
2019-01-24T00:30:32.018Z,100737.67
2019-01-24T00:32:59.755Z,100732.34
2019-01-24T00:35:27.479Z,100510.20
2019-01-24T00:37:55.231Z,100748.81
2019-01-24T00:40:22.970Z,100748.42
2019-01-24T00:42:50.691Z,100742.17
2019-01-24T00:45:18.412Z,100736.92
2019-01-24T00:47:46.131Z,100745.73
2019-01-24T00:50:26.451Z,100754.12
2019-01-24T00:52:51.583Z,100765.63
2019-01-24T00:55:19.314Z,100536.77
2019-01-24T00:57:47.069Z,100766.94
2019-01-24T01:00:19.107Z,100768.28
2019-01-24T01:02:46.851Z,100768.31
2019-01-24T01:05:14.615Z,100622.05
2019-01-24T01:07:42.363Z,100772.28
2019-01-24T01:10:10.203Z,100769.59
2019-01-24T01:12:37.986Z,100773.19
2019-01-24T01:15:06.578Z,100776.74
2019-01-24T01:17:34.296Z,100780.75
2019-01-24T01:20:02.014Z,100781.67
2019-01-24T01:22:29.734Z,100778.11
2019-01-24T01:24:57.486Z,100785.19
2019-01-24T01:27:42.784Z,100776.80
2019-01-24T01:30:11.884Z,100781.64
2019-01-24T01:32:39.768Z,100775.47
2019-01-24T01:35:07.555Z,100780.80
2019-01-24T01:37:35.524Z,100787.45
2019-01-24T01:40:04.885Z,100793.67
2019-01-24T01:42:32.627Z,100792.37
2019-01-24T01:45:00.347Z,100795.45
2019-01-24T01:47:28.083Z,100795.89
2019-01-24T01:49:55.787Z,100793.22
2019-01-24T01:52:23.527Z,100807.86
2019-01-24T01:54:51.302Z,100803.41
2019-01-24T01:57:19.187Z,100806.95
2019-01-24T01:59:46.914Z,100653.56
2019-01-24T02:02:25.312Z,100798.98
2019-01-24T02:04:48.899Z,100807.39
2019-01-24T02:07:16.659Z,100814.06
2019-01-24T02:09:44.432Z,100823.36
2019-01-24T02:12:12.191Z,100824.23
2019-01-24T02:14:39.913Z,100826.09
2019-01-24T02:17:07.643Z,100826.05
2019-01-24T02:19:35.366Z,100827.83
2019-01-24T02:22:03.123Z,100823.39
2019-01-24T02:24:30.842Z,100827.80
2019-01-24T02:26:58.565Z,100829.58
2019-01-24T02:29:26.300Z,100830.88
2019-01-24T02:31:54.078Z,100831.36
2019-01-24T02:34:21.791Z,100831.34
2019-01-24T02:36:49.547Z,100835.77
2019-01-24T02:39:17.372Z,100825.17
2019-01-24T02:42:18.811Z,100836.22
2019-01-24T02:45:08.333Z,100830.04
2019-01-24T02:47:36.068Z,100839.35
2019-01-24T02:50:04.399Z,100816.81
2019-01-24T02:52:32.132Z,100828.29
2019-01-24T02:55:10.937Z,100833.14
2019-01-24T02:57:35.934Z,100836.26
2019-01-24T03:00:03.912Z,100833.58
2019-01-24T03:02:31.712Z,100829.59
2019-01-24T03:04:59.436Z,100828.70
2019-01-24T03:07:27.414Z,100827.36
2019-01-24T03:09:55.154Z,100836.23
2019-01-24T03:12:22.863Z,100757.92
2019-01-24T03:14:50.667Z,100828.71
2019-01-24T03:17:18.767Z,100793.77
2019-01-24T03:19:46.491Z,100832.27
2019-01-24T03:22:14.222Z,100841.11
2019-01-24T03:24:41.970Z,100834.92
2019-01-24T03:27:09.753Z,100841.13
2019-01-24T03:29:37.490Z,100844.23
2019-01-24T03:32:05.298Z,100844.72
2019-01-24T03:34:50.472Z,100848.70
2019-01-24T03:37:18.243Z,100854.03
2019-01-24T03:39:45.986Z,100857.56
2019-01-24T03:42:13.840Z,100853.55
2019-01-24T03:44:41.576Z,100861.53
2019-01-24T03:47:09.387Z,100858.43
2019-01-24T03:49:37.132Z,100861.10
2019-01-24T03:52:05.022Z,100870.87
2019-01-24T03:54:32.787Z,100864.66
2019-01-24T03:57:00.534Z,100835.91
2019-01-24T03:59:28.528Z,100862.88
2019-01-24T04:01:56.274Z,100862.88
2019-01-24T04:04:24.003Z,100860.19
2019-01-24T04:06:51.763Z,100861.08
2019-01-24T04:09:19.508Z,100862.86
2019-01-24T04:11:57.822Z,100857.98
2019-01-24T04:14:25.575Z,100859.30
2019-01-24T04:16:53.403Z,100858.45
2019-01-24T04:19:21.168Z,100853.11
2019-01-24T04:21:48.899Z,100861.53
2019-01-24T04:24:16.690Z,100862.42
2019-01-24T04:26:44.440Z,100867.75
2019-01-24T04:29:12.182Z,100866.84
2019-01-24T04:31:39.942Z,100863.28
2019-01-24T04:34:07.663Z,100858.44
2019-01-24T04:36:35.438Z,100859.32
2019-01-24T04:39:03.359Z,100854.03
2019-01-24T04:41:31.136Z,100862.44
2019-01-24T04:43:58.871Z,100860.21
2019-01-24T04:46:26.610Z,100861.98
2019-01-24T04:48:59.115Z,100867.76
2019-01-24T04:51:33.142Z,100861.99
2019-01-24T04:54:01.135Z,100869.98
2019-01-24T04:56:28.940Z,100864.64
2019-01-24T04:58:56.753Z,100877.48
2019-01-24T05:01:24.534Z,100873.97
2019-01-24T05:03:52.246Z,100875.30
2019-01-24T05:06:20.232Z,100873.06
2019-01-24T05:08:47.960Z,100881.05
2019-01-24T05:11:15.710Z,100877.97
2019-01-24T05:13:43.555Z,100891.72
2019-01-24T05:16:11.276Z,100825.30
2019-01-24T05:18:38.988Z,100886.38
2019-01-24T05:21:07.695Z,100892.16
2019-01-24T05:23:35.580Z,100890.81
2019-01-24T05:26:03.295Z,100894.81
2019-01-24T05:28:31.038Z,100897.89
2019-01-24T05:31:08.671Z,100900.56
2019-01-24T05:33:36.471Z,100900.56
2019-01-24T05:36:04.295Z,100897.47
2019-01-24T05:38:32.514Z,100899.69
2019-01-24T05:41:00.290Z,100896.14
2019-01-24T05:43:28.031Z,100900.11
2019-01-24T05:45:55.776Z,100893.47
2019-01-24T05:48:23.544Z,100895.73
2019-01-24T05:50:51.636Z,100827.03
2019-01-24T05:53:19.460Z,100906.34
2019-01-24T05:55:47.199Z,100903.25
2019-01-24T05:58:15.112Z,100911.66
2019-01-24T06:00:44.003Z,100911.66
2019-01-24T06:03:11.748Z,100868.25
2019-01-24T06:05:41.934Z,100863.39
2019-01-24T06:08:19.986Z,100918.73
2019-01-24T06:10:47.864Z,100915.19
2019-01-24T06:13:16.728Z,100936.47
2019-01-24T06:15:44.635Z,100932.91
2019-01-24T06:18:12.372Z,100916.07
2019-01-24T06:20:40.211Z,100946.63
2019-01-24T06:23:07.940Z,100909.83
2019-01-24T06:25:35.762Z,100953.75
2019-01-24T06:28:03.598Z,100957.74
2019-01-24T06:30:31.421Z,100949.75
2019-01-24T06:32:59.409Z,100955.51
2019-01-24T06:35:27.148Z,100954.59
2019-01-24T06:37:54.896Z,100933.36
2019-01-24T06:40:24.435Z,100947.05
2019-01-24T06:43:06.668Z,100943.93
2019-01-24T06:45:27.976Z,100947.94
2019-01-24T06:47:55.743Z,100942.63
2019-01-24T06:50:23.484Z,100947.48
2019-01-24T06:52:51.203Z,100946.20
2019-01-24T06:55:23.156Z,100953.72
2019-01-24T06:57:50.884Z,100940.87
2019-01-24T07:00:18.686Z,100954.59
2019-01-24T07:02:46.440Z,100955.95
2019-01-24T07:05:14.194Z,100956.82
2019-01-24T07:07:41.916Z,100958.17
2019-01-24T07:10:11.187Z,100962.16
2019-01-24T07:12:38.967Z,100951.94
2019-01-24T07:15:07.934Z,100962.59
2019-01-24T07:17:35.781Z,100959.48
2019-01-24T07:20:22.864Z,100868.25
2019-01-24T07:22:50.917Z,100964.83
2019-01-24T07:25:19.697Z,100976.34
2019-01-24T07:27:47.482Z,100981.64
2019-01-24T07:30:15.616Z,100984.73
2019-01-24T07:32:44.365Z,100982.53
2019-01-24T07:35:12.295Z,100981.66
2019-01-24T07:37:40.073Z,100986.08
2019-01-24T07:40:08.395Z,100989.63
2019-01-24T07:42:36.134Z,100990.97
2019-01-24T07:45:04.355Z,100993.63
2019-01-24T07:47:32.111Z,100987.41
2019-01-24T07:49:59.926Z,100990.95
2019-01-24T07:52:27.789Z,100998.49
2019-01-24T07:55:05.564Z,101002.05
2019-01-24T07:57:33.555Z,100998.51
2019-01-24T08:00:01.435Z,101002.48
2019-01-24T08:02:29.203Z,101003.81
2019-01-24T08:04:56.952Z,101009.58
2019-01-24T08:07:24.998Z,101008.68
2019-01-24T08:09:52.863Z,101012.22
2019-01-24T08:12:20.708Z,101015.77
2019-01-24T08:14:48.529Z,101022.87
2019-01-24T08:17:24.116Z,101023.30
2019-01-24T08:19:51.896Z,101027.75
2019-01-24T08:22:19.667Z,101034.85
2019-01-24T08:24:47.392Z,101014.89
2019-01-24T08:30:04.551Z,101041.92
2019-01-24T08:32:32.332Z,101042.38
2019-01-24T08:35:00.167Z,101052.12
2019-01-24T08:37:27.996Z,101056.55
2019-01-24T08:39:55.836Z,101050.34
2019-01-24T08:42:23.647Z,101030.84
2019-01-24T08:44:51.435Z,101055.67
2019-01-24T08:47:19.627Z,101061.42
2019-01-24T08:49:47.395Z,101061.87
2019-01-24T08:52:15.176Z,101064.09
2019-01-24T08:54:42.987Z,101066.31
2019-01-24T08:57:10.778Z,101068.95
2019-01-24T08:59:52.130Z,101010.42
2019-01-24T09:02:20.179Z,101066.76
2019-01-24T09:04:47.948Z,101071.63
2019-01-24T09:07:15.760Z,101068.52
2019-01-24T09:09:43.523Z,101069.38
2019-01-24T09:12:11.356Z,101064.50
2019-01-24T09:14:39.274Z,101068.08
2019-01-24T09:17:07.122Z,101076.04
2019-01-24T09:19:34.883Z,101073.39
2019-01-24T09:22:02.839Z,101075.62
2019-01-24T09:24:30.585Z,101078.72
2019-01-24T09:26:58.516Z,101082.70
2019-01-24T09:29:26.269Z,100917.34
2019-01-24T09:31:54.118Z,101083.59
2019-01-24T09:34:37.529Z,101082.27
2019-01-24T09:37:05.350Z,101086.26
2019-01-24T09:39:33.155Z,101089.34
2019-01-24T09:42:00.991Z,101088.03
2019-01-24T09:44:28.788Z,101091.58
2019-01-24T09:46:56.527Z,101090.22
2019-01-24T09:49:26.424Z,101091.13
2019-01-24T09:51:54.249Z,101092.46
2019-01-24T09:54:22.079Z,101087.13
2019-01-24T09:56:49.901Z,101080.02
2019-01-24T09:59:17.684Z,101088.45
2019-01-24T10:01:45.468Z,101089.81
2019-01-24T10:04:13.251Z,101088.47
2019-01-24T10:06:42.297Z,101096.91
2019-01-24T10:09:19.232Z,101088.45
2019-01-24T10:11:47.017Z,101096.91
2019-01-24T10:14:14.747Z,101088.91
2019-01-24T10:16:42.799Z,101095.11
2019-01-24T10:19:10.548Z,101098.23
2019-01-24T10:21:38.336Z,101105.31
2019-01-24T10:24:06.204Z,101096.02
2019-01-24T10:26:33.951Z,101095.98
2019-01-24T10:29:01.759Z,101019.31
2019-01-24T10:31:29.750Z,101098.66
2019-01-24T10:33:57.634Z,101103.54
2019-01-24T10:36:25.416Z,101098.23
2019-01-24T10:38:53.236Z,101095.11
2019-01-24T10:41:21.001Z,101093.78
2019-01-24T10:44:05.325Z,101092.03
2019-01-24T10:46:33.054Z,101085.80
2019-01-24T10:49:00.941Z,101086.25
2019-01-24T10:51:28.884Z,101093.34
2019-01-24T10:53:56.685Z,101092.91
2019-01-24T10:56:24.503Z,101090.23
2019-01-24T10:58:52.553Z,101082.27
2019-01-24T11:01:20.348Z,101092.45
2019-01-24T11:03:48.167Z,101096.47
2019-01-24T11:06:16.011Z,101091.56
2019-01-24T11:08:43.876Z,101088.46
2019-01-24T11:11:11.691Z,101094.69
2019-01-24T11:13:39.492Z,101095.59
2019-01-24T11:16:07.334Z,101093.36
2019-01-24T11:18:55.406Z,101098.23
2019-01-24T11:21:23.452Z,101064.09
2019-01-24T11:23:51.344Z,101086.25
2019-01-24T11:26:19.143Z,101086.70
2019-01-24T11:28:46.975Z,101085.38
2019-01-24T11:31:14.770Z,101084.93
2019-01-24T11:33:42.600Z,101060.09
2019-01-24T11:36:10.406Z,101084.05
2019-01-24T11:38:38.199Z,101081.37
2019-01-24T11:41:06.554Z,101075.62
2019-01-24T11:43:34.408Z,101084.93
2019-01-24T11:46:02.175Z,101072.50
2019-01-24T11:48:29.963Z,101076.05
2019-01-24T11:53:34.699Z,101076.05
2019-01-24T11:56:02.739Z,101073.83
2019-01-24T11:58:30.621Z,101031.74
2019-01-24T12:00:58.398Z,101073.83
2019-01-24T12:03:26.181Z,101070.30
2019-01-24T12:05:54.051Z,101075.16
2019-01-24T12:08:21.884Z,101073.41
2019-01-24T12:10:49.680Z,101083.16
2019-01-24T12:13:17.536Z,101076.07
2019-01-24T12:15:45.335Z,101077.83
2019-01-24T12:18:13.154Z,101072.06
2019-01-24T12:20:40.972Z,101076.05
2019-01-24T12:23:08.841Z,101078.28
2019-01-24T12:25:36.655Z,101070.30
2019-01-24T12:28:17.906Z,101067.62
2019-01-24T12:30:43.950Z,101069.84
2019-01-24T12:33:11.928Z,100988.31
2019-01-24T12:35:39.918Z,101075.18
2019-01-24T12:38:07.707Z,101072.08
2019-01-24T12:40:36.373Z,101072.95
2019-01-24T12:43:04.363Z,101071.19
2019-01-24T12:45:33.252Z,101064.52
2019-01-24T12:48:01.070Z,101061.86
2019-01-24T12:50:28.856Z,101066.76
2019-01-24T12:52:56.736Z,101065.88
2019-01-24T12:55:24.616Z,101074.74
2019-01-24T12:57:52.515Z,101071.18
2019-01-24T13:00:21.341Z,100997.17
2019-01-24T13:02:49.152Z,101064.55
2019-01-24T13:05:36.175Z,101056.55
2019-01-24T13:08:03.980Z,101063.22
2019-01-24T13:10:38.512Z,101062.73
2019-01-24T13:13:06.665Z,101068.09
2019-01-24T13:15:34.535Z,101062.31
2019-01-24T13:18:02.297Z,101067.67
2019-01-24T13:20:30.051Z,101072.52
2019-01-24T13:22:57.852Z,101074.73
2019-01-24T13:25:26.897Z,101076.91
2019-01-24T13:27:54.714Z,101065.41
2019-01-24T13:30:23.404Z,101065.84
2019-01-24T13:33:08.668Z,101058.75
2019-01-24T13:35:36.578Z,101064.50
2019-01-24T13:38:04.782Z,101068.05
2019-01-24T13:40:32.598Z,101070.29
2019-01-24T13:43:00.910Z,101065.87
2019-01-24T13:45:29.709Z,101069.41
2019-01-24T13:47:57.584Z,101064.11
2019-01-24T13:50:25.489Z,101068.95
2019-01-24T13:52:53.406Z,101074.30
2019-01-24T13:55:21.324Z,101084.03
2019-01-24T13:57:49.183Z,101077.37
2019-01-24T14:00:21.657Z,101077.80
2019-01-24T14:03:08.132Z,101075.59
2019-01-24T14:05:36.002Z,101075.57
2019-01-24T14:08:03.916Z,101083.55
2019-01-24T14:10:31.773Z,101081.80
2019-01-24T14:12:59.599Z,101081.33
2019-01-24T14:15:27.420Z,101085.34
2019-01-24T14:17:55.266Z,101082.23
2019-01-24T14:20:23.071Z,101081.76
2019-01-24T14:22:50.880Z,101080.86
2019-01-24T14:25:18.692Z,101080.91
2019-01-24T14:27:46.507Z,101085.77
2019-01-24T14:30:18.996Z,101081.34
2019-01-24T14:33:04.295Z,101076.00
2019-01-24T14:35:32.500Z,101076.91
2019-01-24T14:38:00.577Z,101077.34
2019-01-24T14:40:28.476Z,101078.67
2019-01-24T14:42:56.286Z,101082.19
2019-01-24T14:45:24.150Z,101074.67
2019-01-24T14:47:52.030Z,101074.67
2019-01-24T14:50:20.649Z,101074.67
2019-01-24T14:52:48.522Z,101081.31
2019-01-24T14:55:16.434Z,101087.50
2019-01-24T14:57:44.293Z,101085.31
2019-01-24T15:00:34.077Z,101088.43
2019-01-24T15:03:01.961Z,101089.73
2019-01-24T15:05:29.781Z,101095.52
2019-01-24T15:07:57.659Z,101095.07
2019-01-24T15:10:25.566Z,101103.92
2019-01-24T15:12:53.492Z,101109.67
2019-01-24T15:15:21.555Z,101072.48
2019-01-24T15:17:49.422Z,101101.30
2019-01-24T15:20:17.319Z,101109.73
2019-01-24T15:22:45.716Z,101107.04
2019-01-24T15:25:13.552Z,101123.91
2019-01-24T15:27:41.403Z,101088.00
2019-01-24T15:30:11.039Z,101125.23
2019-01-24T15:32:38.903Z,101128.78
2019-01-24T15:35:26.043Z,101127.90
2019-01-24T15:37:54.625Z,101133.69
2019-01-24T15:40:24.264Z,101132.83
2019-01-24T15:42:52.086Z,101121.30
2019-01-24T15:45:19.940Z,101122.61
2019-01-24T15:47:47.858Z,101119.92
2019-01-24T15:50:16.282Z,101105.33
2019-01-24T15:52:44.140Z,101138.12
2019-01-24T15:55:12.016Z,101125.71
2019-01-24T15:57:39.902Z,101129.66
2019-01-24T16:00:09.500Z,101135.88
2019-01-24T16:02:37.412Z,101134.53
2019-01-24T16:05:23.544Z,101138.12
2019-01-24T16:07:51.506Z,101078.28
2019-01-24T16:10:19.746Z,101140.74
2019-01-24T16:12:47.723Z,101148.34
2019-01-24T16:15:16.809Z,101151.01
2019-01-24T16:17:45.091Z,101148.77
2019-01-24T16:20:14.315Z,101141.23
2019-01-24T16:22:42.599Z,101156.30
2019-01-24T16:25:10.996Z,101151.42
2019-01-24T16:27:39.056Z,101158.07
2019-01-24T16:30:08.156Z,101146.55
2019-01-24T16:32:36.235Z,101166.05
2019-01-24T16:35:16.434Z,101168.23
2019-01-24T16:37:40.570Z,101167.82
2019-01-24T16:40:09.520Z,101167.38
2019-01-24T16:42:38.140Z,101167.80
2019-01-24T16:45:07.176Z,101172.69
2019-01-24T16:47:35.284Z,101171.37
2019-01-24T16:50:03.212Z,101161.58
2019-01-24T16:52:31.288Z,101169.62
2019-01-24T16:54:59.069Z,101180.25
2019-01-24T16:57:27.547Z,101185.14
2019-01-24T16:59:55.808Z,101183.79
2019-01-24T17:02:23.704Z,101186.45
2019-01-24T17:04:51.941Z,101182.02
2019-01-24T17:07:23.644Z,101178.02
2019-01-24T17:10:03.604Z,101182.05
2019-01-24T17:12:31.872Z,101186.03
2019-01-24T17:14:59.952Z,101179.80
2019-01-24T17:17:31.354Z,101149.19
2019-01-24T17:19:58.927Z,101179.77
2019-01-24T17:22:27.070Z,101180.70
2019-01-24T17:24:55.355Z,101179.78
2019-01-24T17:27:23.357Z,101182.44
2019-01-24T17:29:51.351Z,101162.93
2019-01-24T17:32:19.519Z,101177.55
2019-01-24T17:34:47.787Z,101171.34
2019-01-24T17:37:15.584Z,101166.47
2019-01-24T17:39:43.827Z,101172.66
2019-01-24T17:42:11.893Z,101171.34
2019-01-24T17:44:56.397Z,101178.89
2019-01-24T17:47:14.308Z,101178.44
2019-01-24T17:49:42.535Z,101177.98
2019-01-24T17:52:10.764Z,101182.84
2019-01-24T17:54:39.003Z,101196.17
2019-01-24T17:57:07.055Z,101187.75
2019-01-24T17:59:35.054Z,101183.31
2019-01-24T18:02:03.660Z,101181.09
2019-01-24T18:04:31.659Z,101185.53
2019-01-24T18:07:00.356Z,101183.80
2019-01-24T18:09:28.370Z,101186.42
2019-01-24T18:11:56.704Z,101188.63
2019-01-24T18:14:25.147Z,101188.16
2019-01-24T18:16:52.882Z,101186.88
2019-01-24T18:19:20.620Z,101191.77
2019-01-24T18:21:48.364Z,101190.88
2019-01-24T18:24:17.792Z,101187.30
2019-01-24T18:26:52.619Z,101185.53
2019-01-24T18:29:20.462Z,101191.30
2019-01-24T18:31:48.272Z,101193.53
2019-01-24T18:34:17.156Z,101194.92
2019-01-24T18:36:45.401Z,101197.17
2019-01-24T18:39:13.686Z,101199.34
2019-01-24T18:41:41.719Z,101202.87
2019-01-24T18:44:09.464Z,101201.09
2019-01-24T18:46:37.443Z,101212.62
2019-01-24T18:49:05.208Z,101218.84
2019-01-24T18:51:32.983Z,101221.06
2019-01-24T18:54:00.735Z,101228.14
2019-01-24T18:56:29.021Z,101229.05
2019-01-24T18:58:57.062Z,101236.62
2019-01-24T19:01:52.953Z,101237.94
2019-01-24T19:04:20.736Z,101236.16
2019-01-24T19:06:48.799Z,101231.34
2019-01-24T19:09:16.555Z,101241.55
2019-01-24T19:11:47.478Z,101241.56
2019-01-24T19:14:15.861Z,101239.81
2019-01-24T19:16:43.631Z,101239.34
2019-01-24T19:19:11.364Z,101242.91
2019-01-24T19:21:39.099Z,101242.42
2019-01-24T19:24:06.883Z,101248.62
2019-01-24T19:26:34.912Z,101249.05
2019-01-24T19:29:02.728Z,101256.61
2019-01-24T19:31:45.051Z,101200.70
2019-01-24T19:34:12.957Z,101252.59
2019-01-24T19:36:41.588Z,101252.66
2019-01-24T19:39:09.315Z,101263.73
2019-01-24T19:41:37.149Z,101256.61
2019-01-24T19:44:05.204Z,101264.56
2019-01-24T19:46:33.519Z,101261.05
2019-01-24T19:49:01.597Z,101263.27
2019-01-24T19:51:29.318Z,101259.23
2019-01-24T19:53:57.448Z,101267.27
2019-01-24T19:56:25.474Z,101264.63
2019-01-24T19:58:53.228Z,101266.00
2019-01-24T20:01:20.963Z,101262.89
2019-01-24T20:07:05.709Z,101272.18
2019-01-24T20:09:33.517Z,101276.22
2019-01-24T20:12:06.712Z,101275.28
2019-01-24T20:14:34.830Z,101264.63
2019-01-24T20:17:21.341Z,101267.77
2019-01-24T20:19:49.371Z,101275.73
2019-01-24T20:22:17.772Z,101273.08
2019-01-24T20:24:46.316Z,101271.75
2019-01-24T20:27:14.521Z,101269.98
2019-01-24T20:29:42.577Z,101272.16
2019-01-24T20:32:10.454Z,101276.19
2019-01-24T20:34:38.510Z,101275.72
2019-01-24T20:37:06.580Z,101273.95
2019-01-24T20:39:34.781Z,101268.59
2019-01-24T20:42:03.241Z,101273.09
2019-01-24T20:44:31.174Z,101270.41
2019-01-24T20:46:59.805Z,101271.31
2019-01-24T20:49:38.552Z,101121.28
2019-01-24T20:52:06.995Z,101262.44
2019-01-24T20:54:35.069Z,101267.77
2019-01-24T20:57:03.130Z,101274.42
2019-01-24T20:59:31.797Z,101270.86
2019-01-24T21:02:00.055Z,101267.31
2019-01-24T21:04:28.091Z,101269.52
2019-01-24T21:06:56.475Z,101250.44
2019-01-24T21:09:25.606Z,101263.73
2019-01-24T21:11:53.712Z,101268.59
2019-01-24T21:14:26.545Z,101267.23
2019-01-24T21:16:54.468Z,101266.80
2019-01-24T21:19:42.219Z,101269.02
2019-01-24T21:22:10.293Z,101270.34
2019-01-24T21:24:38.098Z,101270.37
2019-01-24T21:27:06.541Z,101269.92
2019-01-24T21:29:34.571Z,101270.83
2019-01-24T21:32:02.832Z,101261.48
2019-01-24T21:34:30.641Z,101261.91
2019-01-24T21:36:58.468Z,101263.66
2019-01-24T21:52:59.164Z,101264.62
2019-01-24T22:02:02.415Z,101266.84
2019-01-24T22:04:31.062Z,101206.95
2019-01-24T22:06:59.846Z,101165.70
2019-01-24T22:09:29.205Z,101273.52
2019-01-24T22:12:08.480Z,101277.50
2019-01-24T22:14:36.389Z,101277.98
2019-01-24T22:17:30.653Z,101279.28
2019-01-24T22:20:00.798Z,101226.41
2019-01-24T22:29:23.406Z,101276.64
2019-01-24T22:31:51.259Z,101271.77
2019-01-24T22:34:19.302Z,101272.17
2019-01-24T22:36:49.248Z,101281.50
2019-01-24T22:39:17.532Z,101280.14
2019-01-24T22:41:45.557Z,101280.61
2019-01-24T22:44:13.712Z,101289.50
2019-01-24T22:46:41.875Z,101280.63
2019-01-24T22:49:10.266Z,101051.64
2019-01-24T22:51:38.404Z,101284.19
2019-01-24T22:54:06.248Z,101279.74
2019-01-24T22:56:35.499Z,101281.52
2019-01-24T22:59:17.549Z,101276.62
2019-01-24T23:01:47.369Z,101283.26
2019-01-24T23:04:16.817Z,101280.13
2019-01-24T23:06:44.651Z,101284.13
2019-01-24T23:09:12.437Z,101292.17
2019-01-24T23:11:40.829Z,101289.53
2019-01-24T23:14:09.001Z,101287.28
2019-01-24T23:16:36.791Z,101069.24
2019-01-24T23:19:04.667Z,101283.16
2019-01-24T23:21:32.904Z,101288.92
2019-01-24T23:26:29.298Z,101261.38
2019-01-24T23:29:09.953Z,101284.59
2019-01-24T23:31:57.156Z,101225.50
2019-01-24T23:34:25.004Z,101293.95
2019-01-24T23:36:52.788Z,101289.92
2019-01-24T23:39:21.080Z,101293.05
2019-01-24T23:41:49.124Z,101293.51
2019-01-24T23:44:17.308Z,101288.16
2019-01-24T23:46:45.623Z,101293.95
2019-01-24T23:49:13.445Z,101293.06
2019-01-24T23:51:42.059Z,101287.73
2019-01-24T23:54:28.477Z,101295.29
2019-01-24T23:56:56.856Z,101294.86
2019-01-24T23:59:26.958Z,101286.84
